Time;durP1;ratioP1;P1;durP2;ratioP2;P2;SDS_P1;SDS_P2;PMS_P1;PMS_P2;Temp;Humidity;BMP_temperature;BMP_pressure;BME280_temperature;BME280_humidity;BME280_pressure;Samples;Min_cycle;Max_cycle;Signal;HPM_P1;HPM_P2
2024/03/10 00:02:23;;;;;;;29.48;18.38;;;8.40;99.90;;;;;;5032683;28;20108;-71
2024/03/10 00:04:49;;;;;;;30.80;17.90;;;8.50;99.90;;;;;;5033131;28;20034;-71
2024/03/10 00:07:14;;;;;;;33.53;19.08;;;8.40;99.90;;;;;;5032720;28;20033;-71
2024/03/10 00:09:40;;;;;;;32.13;19.08;;;8.40;99.90;;;;;;5032995;28;20033;-71
2024/03/10 00:12:06;;;;;;;33.50;18.98;;;8.50;99.90;;;;;;5033068;28;20033;-71
2024/03/10 00:14:32;;;;;;;34.20;18.95;;;8.40;99.90;;;;;;5033136;28;20052;-71
2024/03/10 00:16:58;;;;;;;32.78;19.55;;;8.30;1.00;;;;;;5033205;28;20025;-71
2024/03/10 00:19:25;;;;;;;33.38;19.33;;;8.20;1.00;;;;;;5033013;28;20029;-71
2024/03/10 00:21:51;;;;;;;33.72;19.38;;;8.00;1.00;;;;;;5032837;28;20029;-71
2024/03/10 00:24:17;;;;;;;31.83;19.65;;;8.00;99.90;;;;;;5032989;28;20483;-71
2024/03/10 00:26:43;;;;;;;34.10;20.27;;;7.80;99.90;;;;;;5032952;28;20057;-71
2024/03/10 00:29:09;;;;;;;36.03;20.42;;;7.70;99.90;;;;;;5032591;28;20391;-71
2024/03/10 00:31:35;;;;;;;36.95;19.67;;;7.70;1.00;;;;;;5032634;28;20026;-71
2024/03/10 00:34:00;;;;;;;34.92;19.63;;;7.60;1.00;;;;;;5035203;28;20064;-71
2024/03/10 00:36:26;;;;;;;34.70;19.85;;;7.60;9.90;;;;;;5036546;28;20033;-71
2024/03/10 00:38:52;;;;;;;36.33;20.38;;;7.50;99.90;;;;;;5036649;28;20032;-71
2024/03/10 00:41:18;;;;;;;35.22;19.88;;;7.50;99.90;;;;;;5036146;28;20109;-71
2024/03/10 00:43:43;;;;;;;33.72;20.58;;;7.40;99.90;;;;;;5036499;28;20088;-71
2024/03/10 00:46:09;;;;;;;34.42;19.92;;;7.50;1.00;;;;;;5036498;28;20029;-71
2024/03/10 00:48:34;;;;;;;38.28;21.15;;;7.40;1.00;;;;;;5036130;28;20049;-71
2024/03/10 00:51:00;;;;;;;33.38;20.20;;;7.40;1.00;;;;;;5036108;28;20017;-71
2024/03/10 00:53:27;;;;;;;34.28;20.30;;;7.40;99.90;;;;;;5036321;28;20029;-71
2024/03/10 00:55:52;;;;;;;39.47;20.08;;;7.40;99.90;;;;;;5036023;28;20087;-71
2024/03/10 00:58:18;;;;;;;34.83;20.20;;;7.30;99.90;;;;;;5036242;28;20418;-71
2024/03/10 01:00:44;;;;;;;37.97;21.38;;;7.20;99.90;;;;;;5035858;28;20021;-71
2024/03/10 01:03:11;;;;;;;36.80;20.90;;;7.10;99.90;;;;;;5036130;28;20060;-71
2024/03/10 01:05:37;;;;;;;36.15;20.58;;;7.00;99.90;;;;;;5035816;28;20033;-70
2024/03/10 01:08:03;;;;;;;37.03;20.80;;;7.00;99.90;;;;;;5036167;28;20029;-71
2024/03/10 01:10:29;;;;;;;38.42;21.50;;;6.90;99.90;;;;;;5036381;28;20167;-71
2024/03/10 01:12:55;;;;;;;38.60;21.73;;;6.80;1.00;;;;;;5035687;28;20083;-70
2024/03/10 01:15:21;;;;;;;38.60;22.05;;;6.80;1.00;;;;;;5035822;28;20063;-71
2024/03/10 01:17:47;;;;;;;39.28;22.63;;;6.70;92.50;;;;;;5036078;28;20468;-71
2024/03/10 01:20:13;;;;;;;39.30;23.58;;;6.60;99.90;;;;;;5035669;28;20029;-71
2024/03/10 01:22:39;;;;;;;41.17;23.98;;;6.60;1.00;;;;;;5035723;28;20026;-71
2024/03/10 01:25:05;;;;;;;39.90;21.77;;;6.60;24.70;;;;;;5035868;28;20446;-71
2024/03/10 01:27:31;;;;;;;42.00;22.42;;;6.70;1.00;;;;;;5036095;28;20060;-70
2024/03/10 01:29:57;;;;;;;45.88;22.90;;;6.60;1.00;;;;;;5036035;28;20037;-71
2024/03/10 01:32:23;;;;;;;41.58;21.90;;;6.60;99.90;;;;;;5035439;28;20029;-71
2024/03/10 01:34:49;;;;;;;44.83;23.13;;;6.50;1.00;;;;;;5035378;28;20430;-71
2024/03/10 01:37:15;;;;;;;41.50;21.95;;;6.50;1.00;;;;;;5035813;28;20025;-70
2024/03/10 01:39:41;;;;;;;40.83;22.80;;;6.40;13.60;;;;;;5035800;28;20439;-71
2024/03/10 01:42:07;;;;;;;44.55;23.25;;;6.30;99.90;;;;;;5035702;28;20029;-71
2024/03/10 01:44:33;;;;;;;42.25;22.83;;;6.30;99.90;;;;;;5035273;28;20391;-71
2024/03/10 01:46:59;;;;;;;39.05;22.45;;;6.20;99.90;;;;;;5035769;28;20041;-70
2024/03/10 01:49:26;;;;;;;41.35;23.08;;;6.20;1.00;;;;;;5035385;28;20029;-71
2024/03/10 01:51:54;;;;;;;41.35;22.40;;;6.20;1.00;;;;;;5034869;28;20112;-71
2024/03/10 01:54:23;;;;;;;42.65;21.88;;;6.20;99.90;;;;;;5035126;28;20028;-71
2024/03/10 01:56:50;;;;;;;42.30;21.67;;;6.30;99.90;;;;;;5035227;28;20026;-71
2024/03/10 01:59:17;;;;;;;38.60;21.60;;;6.30;99.90;;;;;;5034763;28;20479;-71
2024/03/10 02:01:44;;;;;;;43.45;22.90;;;6.30;99.90;;;;;;5035122;28;20032;-71
2024/03/10 02:04:10;;;;;;;43.63;23.55;;;6.30;99.90;;;;;;5034663;28;20036;-71
2024/03/10 02:06:36;;;;;;;40.58;22.80;;;6.20;99.90;;;;;;5034973;28;20041;-70
2024/03/10 02:09:03;;;;;;;41.47;23.17;;;6.30;99.90;;;;;;5034629;28;20025;-71
2024/03/10 02:11:29;;;;;;;39.25;21.73;;;6.30;99.90;;;;;;5035071;28;20091;-70
2024/03/10 02:13:55;;;;;;;42.40;22.33;;;6.20;99.90;;;;;;5034806;28;20029;-71
2024/03/10 02:16:23;;;;;;;38.38;21.15;;;6.20;99.90;;;;;;5034713;28;20033;-71
2024/03/10 02:18:51;;;;;;;41.25;22.13;;;6.10;99.90;;;;;;5034671;28;20112;-70
2024/03/10 02:21:21;;;;;;;39.20;22.73;;;6.10;99.90;;;;;;5034610;28;20057;-71
2024/03/10 02:23:55;;;;;;;43.97;22.75;;;6.10;99.90;;;;;;5034588;28;20025;-71
2024/03/10 02:26:21;;;;;;;44.75;23.23;;;6.00;1.00;;;;;;5034197;28;20032;-71
2024/03/10 02:29:20;;;;;;;45.78;23.80;;;6.00;1.00;;;;;;5034299;28;20108;-71
2024/03/10 02:48:09;;;;;;;48.22;23.55;;;5.70;99.90;;;;;;5033876;28;20044;-71
2024/03/10 02:50:35;;;;;;;38.17;21.33;;;5.70;99.90;;;;;;5034190;28;20487;-70
2024/03/10 02:53:00;;;;;;;44.58;22.30;;;5.80;1.00;;;;;;5034229;28;20060;-71
2024/03/10 02:55:26;;;;;;;41.22;22.30;;;5.70;13.80;;;;;;5032788;28;20029;-70
2024/03/10 02:57:52;;;;;;;40.05;22.20;;;5.70;1.00;;;;;;5033616;28;20021;-70
2024/03/10 03:00:18;;;;;;;43.47;22.67;;;5.80;1.00;;;;;;5033640;28;20021;-70
2024/03/10 03:02:44;;;;;;;36.92;20.45;;;5.70;1.00;;;;;;5033903;28;20211;-70
2024/03/10 03:05:11;;;;;;;38.17;21.25;;;5.70;1.00;;;;;;5034682;28;20040;-71
2024/03/10 03:07:36;;;;;;;45.17;22.45;;;5.80;1.00;;;;;;5033885;28;20022;-70
2024/03/10 03:10:02;;;;;;;40.72;21.70;;;5.70;1.00;;;;;;5033447;28;20391;-71
2024/03/10 03:12:27;;;;;;;42.63;21.88;;;5.70;1.00;;;;;;5033641;28;20224;-70
2024/03/10 03:14:53;;;;;;;40.10;20.38;;;5.80;1.00;;;;;;5033248;28;20040;-71
2024/03/10 03:17:18;;;;;;;44.15;21.42;;;5.80;99.90;;;;;;5033575;28;20104;-70
2024/03/10 03:19:44;;;;;;;40.97;21.85;;;5.80;99.90;;;;;;5033626;28;20033;-71
2024/03/10 03:22:10;;;;;;;40.85;21.80;;;5.80;99.90;;;;;;5033298;28;20021;-70
2024/03/10 03:24:36;;;;;;;36.55;20.92;;;5.80;99.90;;;;;;5033682;28;20395;-70
2024/03/10 03:27:03;;;;;;;39.00;20.75;;;5.80;99.90;;;;;;5033610;28;20025;-70
2024/03/10 03:29:28;;;;;;;39.88;21.23;;;5.80;99.90;;;;;;5033388;28;20068;-70
2024/03/10 03:31:54;;;;;;;42.45;21.92;;;5.70;99.90;;;;;;5033050;28;20445;-71
2024/03/10 03:34:21;;;;;;;41.35;21.75;;;5.70;99.90;;;;;;5032967;28;20492;-71
2024/03/10 03:36:46;;;;;;;42.55;21.88;;;5.70;99.90;;;;;;5033364;28;20027;-71
2024/03/10 03:39:13;;;;;;;41.25;21.02;;;5.70;99.90;;;;;;5033390;28;20462;-71
2024/03/10 03:41:39;;;;;;;41.25;20.77;;;5.70;1.00;;;;;;5033446;28;20439;-70
2024/03/10 03:44:05;;;;;;;39.08;20.98;;;5.70;1.00;;;;;;5033312;28;20033;-70
2024/03/10 03:46:30;;;;;;;43.67;21.10;;;5.70;99.90;;;;;;5033417;28;20079;-70
2024/03/10 03:48:56;;;;;;;38.85;21.15;;;5.70;99.90;;;;;;5033236;28;20395;-71
2024/03/10 03:51:22;;;;;;;40.25;21.83;;;5.70;99.90;;;;;;5033260;28;20029;-70
2024/03/10 03:53:48;;;;;;;42.00;21.85;;;5.80;99.90;;;;;;5033220;28;20057;-71
2024/03/10 03:56:14;;;;;;;43.25;21.42;;;5.70;99.90;;;;;;5032883;28;20061;-71
2024/03/10 03:58:40;;;;;;;40.95;21.48;;;5.70;99.90;;;;;;5033195;28;20480;-70
2024/03/10 04:01:06;;;;;;;38.17;19.70;;;5.70;99.90;;;;;;5033160;28;20045;-70
2024/03/10 04:03:32;;;;;;;37.63;21.02;;;5.70;99.90;;;;;;5033294;28;20529;-70
2024/03/10 04:05:57;;;;;;;41.58;21.10;;;5.70;99.90;;;;;;5033126;28;20034;-70
2024/03/10 04:08:23;;;;;;;37.90;20.83;;;5.70;99.90;;;;;;5036582;28;20395;-70
2024/03/10 04:10:49;;;;;;;44.50;21.83;;;5.60;99.90;;;;;;5037061;28;20080;-70
2024/03/10 04:13:14;;;;;;;39.03;20.77;;;5.60;1.00;;;;;;5036675;28;20036;-70
2024/03/10 04:15:40;;;;;;;42.70;21.70;;;5.50;1.00;;;;;;5036660;28;20490;-70
2024/03/10 04:18:06;;;;;;;40.20;21.48;;;5.40;71.40;;;;;;5036889;28;20068;-70
2024/03/10 04:20:33;;;;;;;39.45;21.35;;;5.40;99.90;;;;;;5037069;28;20030;-71
2024/03/10 04:22:59;;;;;;;39.80;20.95;;;5.30;99.90;;;;;;5036829;28;20083;-70
2024/03/10 04:25:25;;;;;;;39.38;20.95;;;5.40;99.90;;;;;;5036843;28;20142;-70
2024/03/10 04:27:52;;;;;;;40.85;21.13;;;5.40;99.90;;;;;;5036668;28;20031;-70
2024/03/10 04:30:19;;;;;;;41.53;20.67;;;5.50;99.90;;;;;;5036772;28;20025;-70
2024/03/10 04:32:45;;;;;;;37.40;20.13;;;5.60;1.00;;;;;;5036089;28;20060;-70
2024/03/10 04:35:11;;;;;;;40.33;21.63;;;5.60;1.00;;;;;;5036500;28;20071;-70
2024/03/10 04:37:37;;;;;;;38.80;22.02;;;5.50;1.00;;;;;;5036677;28;20053;-70
2024/03/10 04:40:06;;;;;;;40.40;21.92;;;5.50;39.00;;;;;;5036720;28;20060;-70
2024/03/10 04:42:33;;;;;;;42.53;22.05;;;5.50;64.50;;;;;;5036618;28;20028;-70
2024/03/10 04:44:59;;;;;;;36.22;21.00;;;5.50;8.30;;;;;;5036453;28;20029;-70
2024/03/10 04:47:24;;;;;;;34.75;20.13;;;5.50;1.00;;;;;;5036393;28;20048;-71
2024/03/10 04:49:50;;;;;;;38.80;19.70;;;5.60;1.00;;;;;;5036366;28;20025;-70
2024/03/10 04:52:16;;;;;;;39.38;20.33;;;5.60;1.00;;;;;;5036285;28;20029;-70
2024/03/10 04:54:41;;;;;;;37.78;20.48;;;5.90;99.90;;;;;;5036213;28;20480;-70
2024/03/10 04:57:07;;;;;;;38.78;20.30;;;6.10;99.90;;;;;;5036316;28;20368;-70
2024/03/10 04:59:34;;;;;;;35.53;19.95;;;6.10;1.00;;;;;;5036253;28;20057;-70
2024/03/10 05:01:59;;;;;;;37.92;20.90;;;6.00;6.00;;;;;;5036220;28;20076;-70
2024/03/10 05:04:25;;;;;;;39.22;20.42;;;6.00;99.90;;;;;;5035720;28;20391;-71
2024/03/10 05:06:50;;;;;;;37.30;20.05;;;6.10;99.90;;;;;;5035759;28;20055;-71
2024/03/10 05:09:17;;;;;;;41.35;20.55;;;6.10;99.90;;;;;;5035635;28;20026;-70
2024/03/10 05:11:43;;;;;;;38.78;21.17;;;6.10;99.90;;;;;;5036080;28;20032;-70
2024/03/10 05:14:08;;;;;;;38.83;21.52;;;6.10;99.90;;;;;;5035917;28;20037;-70
2024/03/10 05:16:34;;;;;;;38.33;20.35;;;6.30;99.90;;;;;;5035646;28;20103;-70
2024/03/10 05:18:59;;;;;;;34.83;19.85;;;6.40;29.60;;;;;;5034867;28;20025;-70
2024/03/10 05:21:25;;;;;;;36.83;20.35;;;6.30;1.00;;;;;;5035813;28;20025;-70
2024/03/10 05:23:51;;;;;;;40.42;21.58;;;6.30;99.90;;;;;;5035735;28;20384;-70
2024/03/10 05:26:17;;;;;;;39.50;20.55;;;6.30;99.90;;;;;;5035602;28;20026;-70
2024/03/10 05:28:42;;;;;;;41.03;20.80;;;6.30;99.90;;;;;;5035791;28;20029;-70
2024/03/10 05:31:26;;;;;;;39.25;20.85;;;6.30;99.90;;;;;;5035408;28;20108;-70
2024/03/10 05:33:52;;;;;;;36.42;19.77;;;6.30;99.90;;;;;;5035293;28;20053;-70
2024/03/10 05:36:17;;;;;;;41.70;21.95;;;6.40;99.90;;;;;;5035352;28;20036;-70
2024/03/10 05:38:43;;;;;;;39.40;20.98;;;6.30;99.90;;;;;;5035521;28;20030;-70
2024/03/10 05:41:09;;;;;;;42.05;22.52;;;6.30;1.00;;;;;;5035391;28;20103;-70
2024/03/10 05:43:34;;;;;;;36.50;20.45;;;6.30;11.60;;;;;;5035547;28;20411;-70
2024/03/10 05:46:00;;;;;;;40.22;20.85;;;6.30;99.90;;;;;;5034978;28;20028;-70
2024/03/10 05:48:26;;;;;;;38.40;21.00;;;6.40;99.90;;;;;;5035289;28;20026;-70
2024/03/10 05:50:52;;;;;;;40.58;21.80;;;6.40;99.90;;;;;;5035334;28;20475;-70
2024/03/10 05:53:18;;;;;;;38.85;20.80;;;6.40;1.00;;;;;;5034944;28;20021;-71
2024/03/10 05:55:43;;;;;;;42.60;23.05;;;6.60;99.90;;;;;;5035095;28;20073;-70
2024/03/10 05:58:09;;;;;;;41.22;22.65;;;6.60;22.10;;;;;;5034853;28;20021;-71
2024/03/10 06:00:36;;;;;;;41.60;22.60;;;6.60;5.90;;;;;;5035015;28;20068;-70
2024/03/10 06:03:02;;;;;;;41.25;22.27;;;6.70;99.90;;;;;;5035281;28;20542;-71
2024/03/10 06:05:27;;;;;;;39.53;21.80;;;6.70;99.90;;;;;;5034792;28;20059;-71
2024/03/10 06:07:53;;;;;;;38.65;22.42;;;6.70;99.90;;;;;;5034887;28;20394;-72
2024/03/10 06:10:21;;;;;;;43.92;23.42;;;6.70;99.90;;;;;;5034826;28;20092;-70
2024/03/10 06:12:46;;;;;;;44.63;23.42;;;6.80;99.90;;;;;;5034477;28;20026;-71
2024/03/10 06:15:16;;;;;;;41.35;22.50;;;6.90;51.80;;;;;;5034632;28;20029;-71
2024/03/10 06:17:50;;;;;;;39.72;22.25;;;6.80;37.30;;;;;;5034379;28;20026;-71
2024/03/10 06:25:48;;;;;;;40.70;22.05;;;7.00;99.90;;;;;;5034305;28;20502;-70
2024/03/10 06:28:13;;;;;;;37.85;21.88;;;7.00;30.80;;;;;;5034208;28;20025;-70
2024/03/10 06:30:40;;;;;;;39.13;22.45;;;7.00;1.00;;;;;;5034458;28;20112;-71
2024/03/10 06:33:05;;;;;;;39.22;22.98;;;7.20;99.90;;;;;;5034320;28;20119;-70
2024/03/10 06:35:32;;;;;;;40.47;22.73;;;7.10;99.90;;;;;;5034176;28;20065;-70
2024/03/10 06:37:57;;;;;;;37.55;22.02;;;7.10;99.90;;;;;;5034439;28;20013;-70
2024/03/10 06:40:23;;;;;;;37.38;22.10;;;7.20;99.90;;;;;;5033946;28;20033;-71
2024/03/10 06:42:48;;;;;;;42.95;23.60;;;7.20;99.90;;;;;;5033920;28;20112;-71
2024/03/10 06:45:14;;;;;;;41.97;22.75;;;7.20;99.90;;;;;;5034028;28;20029;-70
2024/03/10 06:47:41;;;;;;;40.63;22.88;;;7.30;99.90;;;;;;5033733;28;20037;-70
2024/03/10 06:50:07;;;;;;;41.20;23.15;;;7.40;1.00;;;;;;5034154;28;20029;-71
2024/03/10 06:52:33;;;;;;;43.90;22.95;;;7.40;99.90;;;;;;5033820;28;20484;-70
2024/03/10 06:55:00;;;;;;;40.10;23.27;;;7.50;99.90;;;;;;5033878;28;20437;-71
2024/03/10 06:57:26;;;;;;;42.50;23.88;;;7.50;99.90;;;;;;5034008;28;20483;-70
2024/03/10 06:59:52;;;;;;;43.42;23.40;;;7.50;99.90;;;;;;5034110;28;20025;-70
2024/03/10 07:02:22;;;;;;;42.00;23.17;;;7.50;99.90;;;;;;5033949;28;20084;-70
2024/03/10 07:04:47;;;;;;;42.85;23.35;;;7.50;99.90;;;;;;5033525;28;20053;-70
2024/03/10 07:07:13;;;;;;;39.90;23.02;;;7.50;99.90;;;;;;5033842;28;20064;-70
2024/03/10 07:09:40;;;;;;;47.50;24.70;;;7.50;46.80;;;;;;5033958;28;20489;-71
2024/03/10 07:12:06;;;;;;;44.38;23.30;;;7.60;1.00;;;;;;5033496;28;20506;-71
2024/03/10 07:14:33;;;;;;;42.35;23.60;;;7.60;1.00;;;;;;5033603;28;20029;-71
2024/03/10 07:16:58;;;;;;;41.05;23.73;;;7.60;1.00;;;;;;5033213;28;20035;-70
2024/03/10 07:19:24;;;;;;;41.25;22.77;;;7.70;99.90;;;;;;5033728;28;20033;-71
2024/03/10 07:21:50;;;;;;;40.45;22.45;;;7.80;99.90;;;;;;5033284;28;20025;-71
2024/03/10 07:24:15;;;;;;;42.25;24.38;;;7.80;99.90;;;;;;5033561;28;20029;-70
2024/03/10 07:26:41;;;;;;;40.88;22.27;;;7.90;99.90;;;;;;5033565;28;20025;-71
2024/03/10 07:29:07;;;;;;;41.67;22.73;;;7.90;1.00;;;;;;5033705;28;20475;-71
2024/03/10 07:31:33;;;;;;;39.58;23.70;;;8.00;99.90;;;;;;5033366;28;20024;-70
2024/03/10 07:33:59;;;;;;;43.20;23.55;;;8.10;99.90;;;;;;5032887;28;20514;-70
2024/03/10 07:36:26;;;;;;;42.25;23.70;;;8.10;99.90;;;;;;5033087;28;20117;-71
2024/03/10 07:38:53;;;;;;;37.67;22.13;;;8.30;99.90;;;;;;5033457;28;20025;-71
2024/03/10 07:41:19;;;;;;;36.83;22.25;;;8.30;96.40;;;;;;5032908;28;20028;-70
2024/03/10 07:43:44;;;;;;;43.00;23.65;;;8.40;1.00;;;;;;5033402;28;20029;-70
2024/03/10 07:46:10;;;;;;;41.22;23.95;;;8.40;1.00;;;;;;5033359;28;20029;-70
2024/03/10 07:48:35;;;;;;;40.08;23.45;;;8.50;1.00;;;;;;5033356;28;20045;-71
2024/03/10 07:51:03;;;;;;;36.70;22.63;;;8.60;99.90;;;;;;5033226;28;20041;-71
2024/03/10 07:53:29;;;;;;;42.25;23.85;;;8.70;99.90;;;;;;5033329;28;20053;-70
2024/03/10 07:55:56;;;;;;;41.65;24.95;;;8.70;99.90;;;;;;5032999;28;20040;-71
2024/03/10 07:58:21;;;;;;;38.60;22.83;;;8.80;99.90;;;;;;5033202;28;20472;-70
2024/03/10 08:00:47;;;;;;;39.95;23.08;;;8.80;99.90;;;;;;5032776;28;20036;-70
2024/03/10 08:03:13;;;;;;;40.53;23.25;;;8.90;99.90;;;;;;5032660;28;20025;-71
2024/03/10 08:05:38;;;;;;;41.53;22.65;;;8.80;68.60;;;;;;5033208;28;20041;-70
2024/03/10 08:08:04;;;;;;;40.80;24.70;;;8.90;63.60;;;;;;5032695;28;20112;-70
2024/03/10 08:10:31;;;;;;;39.95;24.50;;;9.00;14.10;;;;;;5032794;28;20029;-70
2024/03/10 08:12:58;;;;;;;40.85;24.80;;;9.10;1.00;;;;;;5033107;28;20395;-70
2024/03/10 08:15:24;;;;;;;40.20;25.20;;;9.30;1.00;;;;;;5032805;28;20060;-70
2024/03/10 08:17:50;;;;;;;41.20;24.52;;;9.50;1.00;;;;;;5033018;28;20467;-70
2024/03/10 08:20:15;;;;;;;41.55;24.80;;;9.70;99.90;;;;;;5032641;28;20021;-70
2024/03/10 08:22:42;;;;;;;41.50;24.65;;;9.90;99.90;;;;;;5032704;28;20021;-70
2024/03/10 08:25:09;;;;;;;40.15;24.65;;;9.90;99.90;;;;;;5032956;28;20032;-71
2024/03/10 08:27:35;;;;;;;40.67;24.50;;;9.70;99.90;;;;;;5033029;28;20403;-71
2024/03/10 08:30:03;;;;;;;45.25;26.52;;;9.70;99.90;;;;;;5032897;28;20026;-71
2024/03/10 08:32:29;;;;;;;39.63;24.90;;;9.80;99.90;;;;;;5032708;28;20072;-70
2024/03/10 08:34:55;;;;;;;44.22;25.83;;;9.80;99.90;;;;;;5032584;28;20033;-71
2024/03/10 08:37:21;;;;;;;41.83;26.15;;;10.00;99.90;;;;;;5032717;28;20030;-71
2024/03/10 08:39:48;;;;;;;42.55;25.85;;;10.10;99.90;;;;;;5032715;28;20025;-70
2024/03/10 08:42:15;;;;;;;45.30;27.67;;;10.10;90.20;;;;;;5032667;28;20029;-71
2024/03/10 08:44:41;;;;;;;47.83;27.77;;;10.10;95.00;;;;;;5032433;28;20468;-71
2024/03/10 08:47:07;;;;;;;48.70;27.48;;;10.20;83.00;;;;;;5032810;28;20609;-71
2024/03/10 08:49:33;;;;;;;47.13;27.85;;;10.30;59.30;;;;;;5032240;28;20041;-71
2024/03/10 08:52:01;;;;;;;44.30;28.13;;;10.30;35.90;;;;;;5032260;28;20400;-71
2024/03/10 08:54:29;;;;;;;48.05;28.75;;;10.20;1.00;;;;;;5033858;28;20025;-70
2024/03/10 08:56:55;;;;;;;45.28;27.52;;;10.20;14.30;;;;;;5035826;28;20029;-70
2024/03/10 08:59:21;;;;;;;48.55;28.15;;;10.20;1.00;;;;;;5036229;28;20017;-70
2024/03/10 09:01:46;;;;;;;46.88;29.20;;;10.20;17.00;;;;;;5036211;28;20364;-71
2024/03/10 09:04:12;;;;;;;46.30;27.80;;;10.20;6.50;;;;;;5035952;28;20029;-70
2024/03/10 09:06:37;;;;;;;47.90;28.42;;;10.10;2.90;;;;;;5036188;28;20033;-71
2024/03/10 09:09:04;;;;;;;47.72;28.70;;;10.10;1.00;;;;;;5035961;28;20034;-71
2024/03/10 09:11:30;;;;;;;45.53;27.95;;;10.20;1.00;;;;;;5035562;28;20080;-71
2024/03/10 09:13:58;;;;;;;48.72;29.70;;;10.30;1.00;;;;;;5035978;28;20525;-71
2024/03/10 09:16:25;;;;;;;46.00;28.70;;;10.40;1.00;;;;;;5035636;28;20036;-71
2024/03/10 09:18:51;;;;;;;49.30;29.98;;;10.60;1.00;;;;;;5035558;28;20029;-70
2024/03/10 09:21:17;;;;;;;47.30;29.15;;;10.70;1.00;;;;;;5035887;28;20104;-70
2024/03/10 09:23:44;;;;;;;47.95;29.55;;;10.60;1.00;;;;;;5035754;28;20030;-71
2024/03/10 09:26:11;;;;;;;48.42;29.45;;;10.50;1.00;;;;;;5035717;28;20479;-71
2024/03/10 09:28:37;;;;;;;49.03;30.00;;;10.50;1.00;;;;;;5035805;28;20462;-70
2024/03/10 09:31:03;;;;;;;48.63;29.65;;;10.70;1.00;;;;;;5035503;28;20030;-70
2024/03/10 09:33:29;;;;;;;51.13;30.27;;;11.30;1.00;;;;;;5035147;28;20057;-71
2024/03/10 09:35:58;;;;;;;47.75;29.95;;;12.10;1.00;;;;;;5035084;28;20029;-70
2024/03/10 09:38:24;;;;;;;46.90;29.75;;;12.50;99.90;;;;;;5035611;28;20022;-71
2024/03/10 09:40:50;;;;;;;44.92;29.50;;;12.90;99.90;;;;;;5035460;28;20388;-71
2024/03/10 09:43:16;;;;;;;44.42;29.38;;;12.60;99.90;;;;;;5035471;28;20029;-70
2024/03/10 09:45:47;;;;;;;50.17;31.08;;;12.20;99.90;;;;;;5035601;28;20029;-71
2024/03/10 09:48:14;;;;;;;47.40;30.13;;;12.00;99.90;;;;;;5034954;28;20495;-71
2024/03/10 09:50:41;;;;;;;47.97;29.20;;;12.10;99.90;;;;;;5034905;28;20031;-71
2024/03/10 09:53:08;;;;;;;49.47;30.88;;;12.10;99.90;;;;;;5035388;28;20033;-70
2024/03/10 09:55:34;;;;;;;45.55;29.50;;;12.20;99.90;;;;;;5034862;28;20037;-70
2024/03/10 09:58:10;;;;;;;47.05;30.27;;;12.40;99.90;;;;;;5035109;28;20040;-70
2024/03/10 10:00:38;;;;;;;42.67;27.77;;;;;;;;;;5035240;28;20073;-71
2024/03/10 10:03:07;;;;;;;41.03;28.35;;;14.40;97.60;;;;;;5035068;28;20456;-71
2024/03/10 10:05:42;;;;;;;42.92;29.05;;;14.50;1.00;;;;;;5034566;28;20041;-71
2024/03/10 10:08:12;;;;;;;44.17;30.02;;;14.20;1.00;;;;;;5034738;28;20025;-71
2024/03/10 10:10:42;;;;;;;43.17;29.42;;;14.50;1.00;;;;;;5035092;28;20021;-71
2024/03/10 10:13:08;;;;;;;47.20;30.38;;;14.60;1.00;;;;;;5034468;28;20029;-71
2024/03/10 10:15:34;;;;;;;43.47;29.35;;;14.60;1.00;;;;;;5034283;28;20032;-71
2024/03/10 10:18:01;;;;;;;41.28;29.00;;;14.70;1.00;;;;;;5034727;28;20395;-70
2024/03/10 10:20:28;;;;;;;44.47;29.35;;;14.20;1.00;;;;;;5034743;28;20025;-71
2024/03/10 10:22:54;;;;;;;42.15;29.42;;;14.30;1.00;;;;;;5034198;28;20022;-71
2024/03/10 10:25:22;;;;;;;42.58;29.98;;;14.20;1.00;;;;;;5034605;28;20124;-71
2024/03/10 10:27:52;;;;;;;41.83;28.80;;;14.50;1.00;;;;;;5034306;28;20033;-71
2024/03/10 10:30:22;;;;;;;43.63;29.08;;;14.60;1.00;;;;;;5034566;28;20484;-71
2024/03/10 10:32:50;;;;;;;42.95;31.13;;;14.90;1.00;;;;;;5034242;28;20444;-71
2024/03/10 10:35:16;;;;;;;40.85;28.92;;;15.30;1.00;;;;;;5034356;28;20488;-70
2024/03/10 10:37:46;;;;;;;41.20;28.75;;;15.20;1.00;;;;;;5034077;28;20109;-71
2024/03/10 10:40:12;;;;;;;41.67;29.45;;;16.10;1.00;;;;;;5034396;28;20040;-70
2024/03/10 10:42:38;;;;;;;39.45;27.67;;;15.60;1.00;;;;;;5033808;28;20386;-70
2024/03/10 10:45:08;;;;;;;45.35;30.30;;;15.60;1.00;;;;;;5033787;28;20033;-70
2024/03/10 10:47:33;;;;;;;41.83;29.48;;;15.40;1.00;;;;;;5033680;28;20120;-70
2024/03/10 10:49:59;;;;;;;39.38;28.65;;;15.80;1.00;;;;;;5034067;28;20065;-70
2024/03/10 10:52:25;;;;;;;41.25;28.67;;;16.20;1.00;;;;;;5033731;28;20047;-70
2024/03/10 10:54:51;;;;;;;40.70;29.38;;;15.80;1.00;;;;;;5033858;28;20562;-70
2024/03/10 10:57:17;;;;;;;42.33;28.60;;;16.30;1.00;;;;;;5033802;28;20395;-70
2024/03/10 10:59:48;;;;;;;43.70;30.30;;;15.90;1.00;;;;;;5033802;28;20484;-70
2024/03/10 11:02:19;;;;;;;38.88;27.98;;;15.20;1.00;;;;;;5033784;28;20028;-69
2024/03/10 11:04:45;;;;;;;40.75;28.45;;;14.70;1.00;;;;;;5033786;28;20025;-69
2024/03/10 11:07:13;;;;;;;40.78;27.80;;;14.70;1.00;;;;;;5033865;28;20033;-69
2024/03/10 11:09:39;;;;;;;38.95;28.23;;;15.10;1.00;;;;;;5033991;28;20090;-69
2024/03/10 11:12:22;;;;;;;39.80;28.40;;;14.80;1.00;;;;;;5033728;28;20029;-70
2024/03/10 11:14:49;;;;;;;45.72;31.45;;;15.10;1.00;;;;;;5033227;28;20052;-70
2024/03/10 11:17:18;;;;;;;41.15;29.13;;;15.20;1.00;;;;;;5032556;28;20030;-69
2024/03/10 11:19:59;;;;;;;39.78;28.55;;;15.10;1.00;;;;;;5033109;28;20030;-70
2024/03/10 11:22:27;;;;;;;44.30;29.33;;;14.70;1.00;;;;;;5033380;28;20021;-69
2024/03/10 11:25:13;;;;;;;44.53;29.67;;;14.10;1.00;;;;;;5033022;28;20377;-69
2024/03/10 11:27:44;;;;;;;44.00;29.67;;;14.00;1.00;;;;;;5033608;28;20041;-69
2024/03/10 11:33:21;;;;;;;41.40;27.88;;;14.40;1.00;;;;;;5086185;28;20773;-69
2024/03/10 11:35:47;;;;;;;45.15;29.58;;;14.40;1.00;;;;;;5070584;28;20040;-69
2024/03/10 11:38:12;;;;;;;45.40;30.50;;;13.70;1.00;;;;;;5070084;28;20025;-70
2024/03/10 11:40:40;;;;;;;48.47;31.55;;;13.40;1.00;;;;;;5070537;28;20063;-70
2024/03/10 11:43:06;;;;;;;45.15;30.10;;;13.10;1.00;;;;;;5070346;28;20082;-70
2024/03/10 11:45:34;;;;;;;42.90;28.50;;;13.30;1.00;;;;;;5070278;28;20036;-70
2024/03/10 11:47:59;;;;;;;44.88;28.23;;;13.50;1.00;;;;;;5050343;28;20031;-70
2024/03/10 11:50:26;;;;;;;47.22;29.08;;;13.20;1.00;;;;;;5049936;28;20025;-70
2024/03/10 11:52:52;;;;;;;43.45;29.20;;;13.20;1.00;;;;;;5050047;28;20549;-71
2024/03/10 11:55:18;;;;;;;43.78;29.38;;;13.20;1.00;;;;;;5050315;28;20057;-71
2024/03/10 11:57:44;;;;;;;45.50;28.15;;;13.30;1.00;;;;;;5050383;28;20056;-70
2024/03/10 12:00:15;;;;;;;42.30;28.33;;;13.60;1.00;;;;;;5050209;28;20029;-70
2024/03/10 12:02:40;;;;;;;43.28;28.33;;;14.00;1.00;;;;;;5049814;28;20053;-70
2024/03/10 12:05:09;;;;;;;42.90;29.42;;;14.20;1.00;;;;;;5049920;28;20040;-70
2024/03/10 12:07:35;;;;;;;41.40;27.60;;;14.20;1.00;;;;;;5049574;28;20035;-70
2024/03/10 12:10:08;;;;;;;42.10;28.50;;;14.50;1.00;;;;;;5049985;28;20029;-70
2024/03/10 12:12:35;;;;;;;39.55;27.48;;;14.00;1.00;;;;;;5049670;28;20053;-70
2024/03/10 12:15:00;;;;;;;41.53;26.30;;;13.70;1.00;;;;;;5049840;28;20021;-70
2024/03/10 12:17:26;;;;;;;39.25;26.38;;;13.80;1.00;;;;;;5049404;28;20090;-70
2024/03/10 12:19:52;;;;;;;39.97;27.13;;;13.20;1.00;;;;;;5049400;28;20025;-70
2024/03/10 12:22:18;;;;;;;42.90;27.17;;;13.10;1.00;;;;;;5049704;28;20079;-70
2024/03/10 12:24:44;;;;;;;41.08;27.48;;;13.10;1.00;;;;;;5049669;28;20056;-70
2024/03/10 12:27:09;;;;;;;41.15;26.67;;;13.20;1.00;;;;;;5049726;28;20087;-70
2024/03/10 12:29:44;;;;;;;39.08;26.50;;;13.30;1.00;;;;;;5049260;28;20575;-70
2024/03/10 12:32:09;;;;;;;38.63;26.25;;;13.40;1.00;;;;;;5049200;28;20072;-70
2024/03/10 12:34:35;;;;;;;38.50;26.02;;;13.30;1.00;;;;;;5049460;28;20025;-70
2024/03/10 12:37:01;;;;;;;37.55;25.63;;;13.30;1.00;;;;;;5049149;28;20028;-70
2024/03/10 12:39:27;;;;;;;42.00;27.85;;;13.30;1.00;;;;;;5049047;28;20021;-70
2024/03/10 12:41:53;;;;;;;39.75;26.20;;;13.40;1.00;;;;;;5049459;28;20031;-70
2024/03/10 12:44:20;;;;;;;40.47;27.10;;;13.50;1.00;;;;;;5037721;28;20372;-70
2024/03/10 12:46:45;;;;;;;37.10;26.13;;;13.30;1.00;;;;;;5035709;28;20025;-70
2024/03/10 12:49:11;;;;;;;38.88;24.80;;;13.10;1.00;;;;;;5036144;28;20030;-70
2024/03/10 12:51:37;;;;;;;40.22;26.00;;;13.40;1.00;;;;;;5035766;28;20112;-70
2024/03/10 12:54:03;;;;;;;39.58;26.63;;;13.30;1.00;;;;;;5035898;28;20483;-70
2024/03/10 12:56:28;;;;;;;39.92;26.45;;;13.20;1.00;;;;;;5035505;28;20025;-70
2024/03/10 12:58:54;;;;;;;40.03;26.60;;;13.40;1.00;;;;;;5035804;28;20101;-70
2024/03/10 13:01:21;;;;;;;42.25;27.30;;;13.30;1.00;;;;;;5035761;28;20080;-70